Time;durP1;ratioP1;P1;durP2;ratioP2;P2;SDS_P1;SDS_P2;PMS_P1;PMS_P2;Temp;Humidity;BMP_temperature;BMP_pressure;BME280_temperature;BME280_humidity;BME280_pressure;Samples;Min_cycle;Max_cycle;Signal;HPM_P1;HPM_P2
2021/05/31 00:02:34;;;;;;;9.00;6.70;;;;;;;11.05;66.05;99430.52;2187986;81;21005;-80
2021/05/31 00:05:35;;;;;;;7.30;5.83;;;;;;;10.88;66.30;99428.00;2190334;81;21075;-78
2021/05/31 00:08:36;;;;;;;11.13;6.73;;;;;;;10.77;66.58;99418.66;2175451;81;21092;-81
2021/05/31 00:11:37;;;;;;;9.40;6.60;;;;;;;10.64;66.75;99418.38;2180503;81;21108;-80
2021/05/31 00:14:38;;;;;;;10.20;6.37;;;;;;;10.44;67.08;99423.17;2179462;81;21131;-80
2021/05/31 00:17:39;;;;;;;13.10;7.70;;;;;;;10.30;67.40;99424.57;2167958;81;21101;-79
2021/05/31 00:20:40;;;;;;;8.83;7.30;;;;;;;10.23;67.55;99429.20;2182540;81;21364;-79
2021/05/31 00:23:40;;;;;;;10.00;6.60;;;;;;;10.16;67.77;99430.75;2176701;81;21403;-79
2021/05/31 00:26:42;;;;;;;10.97;6.87;;;;;;;10.10;67.76;99424.97;2181329;81;21120;-79
2021/05/31 00:29:43;;;;;;;8.10;6.67;;;;;;;10.04;68.09;99427.86;2182735;81;21084;-80
2021/05/31 00:32:44;;;;;;;10.70;7.30;;;;;;;9.99;68.25;99416.02;2187847;81;21044;-80
2021/05/31 00:35:45;;;;;;;9.17;7.60;;;;;;;9.83;68.13;99415.20;2182972;81;21020;-78
2021/05/31 00:38:46;;;;;;;8.10;7.30;;;;;;;9.64;68.39;99416.48;2168637;81;21028;-79
2021/05/31 00:41:49;;;;;;;8.37;6.87;;;;;;;9.48;68.77;99420.41;2190208;81;21072;-78
2021/05/31 00:44:49;;;;;;;8.67;6.97;;;;;;;9.41;68.99;99423.70;2192156;81;21013;-78
2021/05/31 00:47:50;;;;;;;8.77;6.20;;;;;;;9.34;69.03;99422.20;2183987;81;21017;-78
2021/05/31 00:50:51;;;;;;;10.10;7.00;;;;;;;9.22;68.98;99417.55;2179920;81;21088;-79
2021/05/31 00:53:52;;;;;;;7.17;6.47;;;;;;;9.10;69.11;99422.44;2187659;81;21013;-79
2021/05/31 00:56:53;;;;;;;8.70;6.33;;;;;;;8.99;69.28;99414.75;2170069;81;21107;-79
2021/05/31 00:59:54;;;;;;;9.87;6.57;;;;;;;8.93;69.71;99420.26;2191067;81;21001;-79
2021/05/31 01:02:56;;;;;;;7.23;6.53;;;;;;;8.88;69.76;99417.95;2195455;81;21012;-78
2021/05/31 01:06:00;;;;;;;9.17;6.47;;;;;;;8.78;69.78;99415.93;2185628;81;21032;-78
2021/05/31 01:09:00;;;;;;;13.57;7.10;;;;;;;8.66;69.80;99416.86;2176424;81;21096;-78
2021/05/31 01:12:00;;;;;;;12.40;7.40;;;;;;;8.55;70.08;99415.25;2168671;81;21401;-78
2021/05/31 01:15:01;;;;;;;8.13;6.93;;;;;;;8.51;70.19;99413.81;2163861;81;21098;-78
2021/05/31 01:18:03;;;;;;;9.70;7.23;;;;;;;8.45;70.23;99417.12;2173832;81;21103;-79
2021/05/31 01:21:04;;;;;;;9.27;7.20;;;;;;;8.43;70.35;99420.09;2182979;81;21420;-80
2021/05/31 01:24:06;;;;;;;7.97;6.77;;;;;;;8.37;70.31;99418.61;2183611;81;21129;-79
2021/05/31 01:27:07;;;;;;;8.73;6.67;;;;;;;8.27;70.52;99410.92;2182956;81;21109;-80
2021/05/31 01:30:08;;;;;;;9.77;7.07;;;;;;;8.21;70.58;99416.36;2187166;81;21365;-79
2021/05/31 01:33:09;;;;;;;9.77;7.37;;;;;;;8.13;70.80;99413.52;2166690;81;21084;-79
2021/05/31 01:36:10;;;;;;;8.87;7.07;;;;;;;8.14;70.98;99411.80;2190301;81;21386;-78
2021/05/31 01:39:11;;;;;;;8.27;7.00;;;;;;;8.13;70.86;99414.83;2163900;81;21055;-79
2021/05/31 01:42:12;;;;;;;11.33;7.33;;;;;;;8.12;70.90;99413.06;2164186;81;21044;-80
2021/05/31 01:45:13;;;;;;;8.43;7.43;;;;;;;8.11;70.95;99410.00;2194586;81;21463;-78
2021/05/31 01:48:14;;;;;;;27.70;8.27;;;;;;;8.03;70.79;99410.59;2192899;81;21049;-79
2021/05/31 01:51:18;;;;;;;13.83;7.22;;;;;;;9.32;77.11;99410.86;2174863;81;21017;-79
2021/05/31 01:54:19;;;;;;;15.03;6.80;;;;;;;9.64;70.41;99406.48;2185594;81;20999;-78
2021/05/31 01:57:21;;;;;;;8.13;6.83;;;;;;;9.31;69.04;99407.78;2171780;81;21097;-80
2021/05/31 02:00:22;;;;;;;14.17;7.27;;;;;;;8.90;68.64;99412.78;2173895;81;21435;-79
2021/05/31 02:03:23;;;;;;;9.83;7.07;;;;;;;8.61;69.09;99411.94;2178476;81;20992;-78
2021/05/31 02:06:24;;;;;;;8.67;7.30;;;;;;;8.43;69.38;99410.11;2188919;81;21005;-78
2021/05/31 02:09:25;;;;;;;8.50;6.10;;;;;;;8.22;69.36;99402.52;2185125;81;21087;-79
2021/05/31 02:12:26;;;;;;;14.83;6.83;;;;;;;8.05;69.64;99403.31;2187556;81;21006;-80
2021/05/31 02:15:27;;;;;;;9.93;6.67;;;;;;;7.92;69.89;99399.45;2177371;81;21079;-79
2021/05/31 02:18:28;;;;;;;11.17;6.83;;;;;;;7.83;70.06;99396.56;2179603;81;21064;-80
2021/05/31 02:21:29;;;;;;;76.10;10.33;;;;;;;7.75;70.27;99402.32;2188572;81;21052;-77
2021/05/31 02:24:34;;;;;;;13.60;6.20;;;;;;;7.67;70.47;99404.26;2173528;81;21468;-79
2021/05/31 02:27:33;;;;;;;15.93;6.73;;;;;;;7.64;70.62;99398.97;2180754;81;21128;-79
2021/05/31 02:30:34;;;;;;;9.33;6.43;;;;;;;7.59;70.57;99398.34;2181795;81;21029;-80
2021/05/31 02:33:35;;;;;;;10.23;6.07;;;;;;;7.55;70.54;99399.97;2185939;81;21061;-79
2021/05/31 02:36:37;;;;;;;7.90;6.73;;;;;;;7.48;70.49;99396.70;2192761;81;21029;-79
2021/05/31 02:39:38;;;;;;;13.43;6.63;;;;;;;7.44;70.50;99398.73;2169854;81;21124;-78
2021/05/31 02:42:39;;;;;;;98.83;14.30;;;;;;;7.44;71.05;99397.44;2183390;81;21032;-77
2021/05/31 02:45:40;;;;;;;41.57;8.60;;;;;;;7.44;70.78;99396.14;2163482;81;21015;-79
2021/05/31 02:48:41;;;;;;;30.80;8.10;;;;;;;7.44;70.77;99397.85;2169683;81;21096;-81
2021/05/31 02:51:44;;;;;;;19.17;7.47;;;;;;;7.40;71.56;99390.38;2170755;81;21114;-79
2021/05/31 02:54:44;;;;;;;11.73;7.80;;;;;;;8.66;70.92;99394.73;2174998;81;21091;-78
2021/05/31 02:57:46;;;;;;;24.80;8.70;;;;;;;8.41;69.17;99389.67;2183743;81;21116;-80
2021/05/31 03:00:46;;;;;;;26.90;8.73;;;;;;;11.00;78.28;99381.65;2188616;81;21365;-80
2021/05/31 03:03:47;;;;;;;14.23;7.83;;;;;;;14.13;70.36;99376.98;2187502;81;20984;-79
2021/05/31 03:06:48;;;;;;;17.20;7.40;;;;;;;16.04;65.01;99373.58;2165973;81;21036;-80
2021/05/31 03:09:49;;;;;;;21.97;7.85;;;;;;;17.41;60.19;99369.09;2187878;81;21021;-79
2021/05/31 03:12:50;;;;;;;20.72;6.80;;;;;;;18.31;56.75;99374.48;2189722;81;21024;-80
2021/05/31 03:15:53;;;;;;;13.18;7.03;;;;;;;18.92;54.38;99377.73;2183558;81;20977;-80
2021/05/31 03:18:54;;;;;;;10.20;5.83;;;;;;;19.44;52.01;99378.34;2171086;81;21132;-79
2021/05/31 03:21:55;;;;;;;7.12;5.60;;;;;;;19.04;46.70;99376.25;2195459;81;21020;-79
2021/05/31 03:24:56;;;;;;;10.63;5.87;;;;;;;16.38;46.58;99388.42;2181442;81;21028;-79
2021/05/31 03:27:58;;;;;;;9.83;6.10;;;;;;;14.24;48.53;99386.23;2173665;81;21119;-78
2021/05/31 03:30:59;;;;;;;8.65;5.95;;;;;;;12.62;51.01;99395.17;2178654;81;21104;-79
2021/05/31 03:34:01;;;;;;;13.62;7.28;;;;;;;11.53;53.67;99396.12;2181657;81;21101;-79
2021/05/31 03:37:02;;;;;;;8.23;6.65;;;;;;;10.89;55.70;99396.23;2180956;81;21031;-79
2021/05/31 03:40:03;;;;;;;9.93;5.90;;;;;;;10.47;57.10;99393.23;2178818;81;21005;-79
2021/05/31 03:43:04;;;;;;;10.82;5.53;;;;;;;10.12;57.82;99395.89;2182457;81;21034;-79
2021/05/31 03:46:05;;;;;;;6.97;6.27;;;;;;;9.79;58.49;99390.78;2170628;81;21044;-79
2021/05/31 03:49:06;;;;;;;12.03;7.03;;;;;;;9.53;59.71;99398.36;2182547;81;21005;-79
2021/05/31 03:52:07;;;;;;;10.93;6.83;;;;;;;9.40;60.83;99396.30;2182094;81;21087;-79
2021/05/31 03:55:08;;;;;;;15.80;8.03;;;;;;;9.33;61.46;99389.17;2179066;81;20997;-79
2021/05/31 03:58:10;;;;;;;15.67;12.90;;;;;;;9.29;62.10;99396.03;2170643;81;21160;-81
2021/05/31 04:01:11;;;;;;;15.23;9.93;;;;;;;9.36;62.98;99395.34;2186891;81;21089;-78
2021/05/31 04:04:12;;;;;;;10.53;8.23;;;;;;;9.42;63.47;99389.40;2182430;81;21089;-78
2021/05/31 04:13:52;;;;;;;9.40;7.03;;;;;;;9.92;64.05;99388.46;2187981;81;21117;-79
2021/05/31 04:16:55;;;;;;;12.10;7.53;;;;;;;10.08;63.74;99389.27;2177088;81;21472;-78
2021/05/31 04:19:56;;;;;;;15.50;7.80;;;;;;;10.23;63.71;99388.75;2175721;81;21017;-79
2021/05/31 04:22:57;;;;;;;10.97;7.90;;;;;;;10.34;63.48;99385.53;2180261;81;21100;-79
2021/05/31 04:25:58;;;;;;;11.80;8.63;;;;;;;10.48;63.52;99384.13;2172269;81;21103;-79
2021/05/31 04:28:59;;;;;;;11.83;8.30;;;;;;;10.60;63.48;99386.10;2163257;81;21095;-79
2021/05/31 04:32:02;;;;;;;17.73;9.00;;;;;;;10.72;63.55;99388.08;2163201;81;21031;-78
2021/05/31 04:35:03;;;;;;;13.70;7.93;;;;;;;10.85;63.33;99386.16;2162396;81;21459;-79
2021/05/31 04:38:04;;;;;;;11.47;8.07;;;;;;;11.00;63.35;99390.79;2173332;81;21774;-79
2021/05/31 04:41:05;;;;;;;11.97;7.25;;;;;;;11.13;63.14;99391.47;2191797;81;21020;-79
2021/05/31 04:44:06;;;;;;;14.20;7.62;;;;;;;11.31;62.77;99389.22;2179353;81;21402;-79
2021/05/31 04:47:08;;;;;;;12.00;6.72;;;;;;;11.38;62.30;99386.28;2180207;81;21004;-78
2021/05/31 04:50:08;;;;;;;11.70;6.95;;;;;;;11.52;62.16;99382.17;2174349;81;21043;-78
2021/05/31 04:53:10;;;;;;;10.90;7.00;;;;;;;11.78;61.79;99379.58;2163554;81;21402;-81
2021/05/31 04:56:13;;;;;;;10.87;6.30;;;;;;;11.88;60.84;99380.59;2191803;81;21064;-78
2021/05/31 04:59:14;;;;;;;10.15;6.83;;;;;;;12.09;61.03;99386.57;2176888;81;21128;-79
2021/05/31 05:02:15;;;;;;;41.58;8.88;;;;;;;12.29;60.36;99386.88;2175289;81;21112;-81
2021/05/31 05:05:16;;;;;;;7.90;5.70;;;;;;;12.45;59.75;99383.60;2177134;81;21008;-79
2021/05/31 05:08:17;;;;;;;9.00;5.83;;;;;;;12.47;59.12;99380.58;2172628;81;21047;-79
2021/05/31 05:11:21;;;;;;;9.75;6.30;;;;;;;12.59;58.68;99385.97;2181846;81;21095;-80
2021/05/31 05:14:22;;;;;;;8.65;5.80;;;;;;;12.63;58.16;99388.19;2192076;81;21176;-80
2021/05/31 05:17:23;;;;;;;11.28;5.65;;;;;;;12.73;57.96;99380.89;2185672;81;21081;-79
2021/05/31 05:20:27;;;;;;;9.08;5.28;;;;;;;12.97;57.71;99389.45;2183867;81;21093;-80
2021/05/31 05:23:28;;;;;;;8.58;5.08;;;;;;;13.10;57.52;99387.88;2187154;81;21109;-81
2021/05/31 05:26:29;;;;;;;9.25;5.62;;;;;;;13.38;56.88;99382.95;2166006;81;21044;-79
2021/05/31 05:29:30;;;;;;;8.23;5.62;;;;;;;13.51;55.69;99383.06;2194631;81;21096;-81
2021/05/31 05:32:31;;;;;;;9.00;5.10;;;;;;;13.54;55.04;99383.96;2164540;81;21044;-80
2021/05/31 05:35:43;;;;;;;6.90;5.17;;;;;;;13.59;54.51;99376.13;2186254;81;21115;-80
2021/05/31 05:47:55;;;;;;;9.10;4.80;;;;;;;14.22;53.49;99383.60;2152823;81;21108;-79
2021/05/31 05:51:06;;;;;;;12.88;5.70;;;;;;;14.32;51.87;99384.09;2176398;81;21136;-80
2021/05/31 05:54:07;;;;;;;17.12;5.70;;;;;;;14.34;52.21;99385.41;2178574;81;21068;-80
2021/05/31 05:57:09;;;;;;;71.20;8.28;;;;;;;14.53;52.29;99380.73;2190327;81;21116;-79
2021/05/31 06:00:10;;;;;;;11.38;4.25;;;;;;;14.68;51.24;99377.28;2170078;81;21037;-78
2021/05/31 06:03:11;;;;;;;15.88;4.28;;;;;;;14.88;51.62;99380.89;2177052;81;21357;-79
2021/05/31 06:06:12;;;;;;;4.65;3.77;;;;;;;15.10;51.01;99382.27;2194704;81;21344;-80
2021/05/31 06:09:15;;;;;;;12.50;3.80;;;;;;;15.17;50.46;99382.72;2182687;81;21116;-80
2021/05/31 06:12:16;;;;;;;5.75;3.80;;;;;;;15.29;49.58;99377.47;2174851;81;21110;-80
2021/05/31 06:15:17;;;;;;;5.08;3.75;;;;;;;15.42;49.43;99383.19;2178982;81;21084;-80
2021/05/31 06:18:18;;;;;;;4.97;3.70;;;;;;;15.61;49.27;99376.25;2184833;81;21029;-79
2021/05/31 06:21:19;;;;;;;9.30;2.90;;;;;;;15.73;48.67;99377.56;2179761;81;21409;-79
2021/05/31 06:24:20;;;;;;;7.00;3.05;;;;;;;15.82;47.84;99373.61;2179758;81;21045;-79
2021/05/31 06:27:21;;;;;;;3.65;3.20;;;;;;;15.90;46.34;99375.80;2166626;81;21008;-79
2021/05/31 06:30:23;;;;;;;36.73;4.85;;;;;;;16.01;47.26;99376.22;2183847;81;21111;-79
2021/05/31 06:33:24;;;;;;;7.25;2.95;;;;;;;16.06;47.17;99375.33;2176997;81;21008;-79
2021/05/31 06:36:26;;;;;;;3.42;2.85;;;;;;;16.26;46.48;99375.28;2180157;81;21425;-79
2021/05/31 06:39:27;;;;;;;4.30;2.72;;;;;;;16.33;46.47;99379.66;2181311;81;21294;-80
2021/05/31 06:42:28;;;;;;;6.20;2.83;;;;;;;16.21;46.41;99371.78;2176726;81;20985;-80
2021/05/31 06:45:29;;;;;;;6.30;2.70;;;;;;;16.23;46.70;99371.34;2192182;81;21041;-79
2021/05/31 06:48:30;;;;;;;6.62;2.65;;;;;;;16.32;47.02;99372.63;2183861;81;21036;-79
2021/05/31 06:51:32;;;;;;;4.80;2.40;;;;;;;16.41;45.39;99369.97;2196631;81;21005;-81
2021/05/31 06:54:33;;;;;;;4.25;2.42;;;;;;;16.75;42.92;99368.58;2165044;81;21035;-77
2021/05/31 06:57:34;;;;;;;54.75;7.50;;;;;;;16.60;42.90;99369.94;2194325;81;21084;-79
2021/05/31 07:00:35;;;;;;;4.10;2.30;;;;;;;16.53;43.31;99368.64;2182892;81;21083;-79
2021/05/31 07:03:36;;;;;;;3.87;2.60;;;;;;;16.57;42.47;99373.45;2182032;81;21020;-78
2021/05/31 07:06:37;;;;;;;5.85;2.30;;;;;;;16.65;42.90;99367.75;2182244;81;21014;-78
2021/05/31 07:09:38;;;;;;;2.80;2.02;;;;;;;17.08;42.55;99371.48;2187281;81;21112;-79
2021/05/31 07:12:39;;;;;;;5.42;2.40;;;;;;;17.19;41.75;99367.02;2189368;81;21026;-78
2021/05/31 07:15:41;;;;;;;4.65;2.10;;;;;;;16.94;41.36;99364.09;2187366;81;21112;-78
2021/05/31 07:18:42;;;;;;;4.00;2.10;;;;;;;17.15;40.66;99362.64;2183148;81;21124;-79
2021/05/31 07:21:46;;;;;;;7.70;2.35;;;;;;;17.30;38.93;99381.01;2188466;81;21092;-78
2021/05/31 07:24:47;;;;;;;100.65;6.08;;;;;;;17.19;38.39;99370.53;2175083;81;21051;-78
2021/05/31 07:27:48;;;;;;;7.65;2.17;;;;;;;17.05;38.44;99360.95;2184482;81;21160;-78
2021/05/31 07:30:49;;;;;;;2.72;1.80;;;;;;;16.93;38.10;99363.22;2173071;81;21388;-78
2021/05/31 07:33:50;;;;;;;12.15;1.98;;;;;;;17.03;39.13;99364.91;2190654;81;21112;-79
2021/05/31 07:36:51;;;;;;;4.12;2.15;;;;;;;17.23;39.17;99361.27;2190838;81;21016;-79
2021/05/31 07:39:52;;;;;;;8.05;2.20;;;;;;;17.30;39.02;99355.95;2191800;81;21155;-78
2021/05/31 07:42:53;;;;;;;4.40;2.35;;;;;;;17.62;38.29;99353.09;2179871;81;21416;-78
2021/05/31 07:45:54;;;;;;;2.72;1.52;;;;;;;17.68;37.95;99343.83;2185645;81;21092;-78
2021/05/31 07:48:58;;;;;;;16.60;2.10;;;;;;;17.93;38.23;99352.84;2169253;81;21087;-79
2021/05/31 07:52:08;;;;;;;4.05;1.80;;;;;;;18.16;35.43;99349.52;2178222;81;21119;-79
2021/05/31 07:55:02;;;;;;;5.85;1.65;;;;;;;18.12;36.09;99346.03;2183483;81;21523;-78
2021/05/31 07:58:03;;;;;;;6.37;1.70;;;;;;;18.22;35.25;99338.04;2184715;81;21527;-79
2021/05/31 08:01:04;;;;;;;10.98;2.22;;;;;;;18.06;36.38;99338.62;2163189;81;21004;-78
2021/05/31 08:04:06;;;;;;;9.43;2.00;;;;;;;18.39;33.83;99335.63;2173487;81;21432;-80
2021/05/31 08:07:07;;;;;;;2.70;1.60;;;;;;;18.28;32.58;99359.98;2176979;81;20985;-78
2021/05/31 08:10:08;;;;;;;1.92;1.50;;;;;;;18.15;33.60;99339.39;2197618;81;21032;-78
2021/05/31 08:13:09;;;;;;;38.70;3.47;;;;;;;17.96;34.48;99333.88;2184519;81;21041;-78
2021/05/31 08:16:11;;;;;;;4.28;2.10;;;;;;;17.69;35.03;99340.30;2197874;81;21116;-78
2021/05/31 08:19:14;;;;;;;32.75;3.90;;;;;;;17.67;34.99;99337.24;2146297;81;21063;-79
2021/05/31 08:22:15;;;;;;;3.65;1.60;;;;;;;17.99;35.02;99335.17;2176239;81;21080;-79
2021/05/31 08:25:16;;;;;;;3.98;1.72;;;;;;;18.54;34.03;99335.02;2171954;81;20988;-79
2021/05/31 08:28:18;;;;;;;4.80;1.82;;;;;;;18.35;34.95;99327.31;2185594;81;21436;-78
2021/05/31 08:31:18;;;;;;;2.95;1.50;;;;;;;18.52;34.52;99328.88;2180706;81;21011;-79
2021/05/31 08:34:19;;;;;;;4.35;1.75;;;;;;;18.17;33.39;99335.41;2188858;81;21097;-78
2021/05/31 08:37:22;;;;;;;5.77;1.73;;;;;;;17.94;34.07;99334.34;2190390;81;21428;-77
2021/05/31 08:40:24;;;;;;;8.38;1.70;;;;;;;18.49;33.89;99334.20;2181183;81;21112;-78
2021/05/31 08:43:25;;;;;;;5.72;1.85;;;;;;;18.49;33.21;99315.70;2174551;81;21076;-79
2021/05/31 08:46:26;;;;;;;1.60;1.37;;;;;;;18.60;33.81;99327.01;2163005;81;21107;-78
2021/05/31 08:49:27;;;;;;;5.15;2.30;;;;;;;18.74;34.26;99326.41;2184052;81;21456;-79
2021/05/31 08:52:28;;;;;;;8.33;1.95;;;;;;;19.10;34.09;99319.76;2173154;81;21418;-78
2021/05/31 08:55:31;;;;;;;3.35;1.47;;;;;;;18.81;31.84;99338.66;2187766;81;21799;-78
2021/05/31 08:58:32;;;;;;;1.85;1.55;;;;;;;18.34;32.60;99330.84;2168509;81;21083;-79
2021/05/31 09:01:33;;;;;;;7.65;2.12;;;;;;;17.86;32.86;99325.62;2168554;81;21360;-79
2021/05/31 09:04:34;;;;;;;4.78;1.47;;;;;;;17.59;33.71;99333.31;2177598;81;21104;-78
2021/05/31 09:07:35;;;;;;;5.65;1.92;;;;;;;17.90;33.40;99329.98;2188928;81;21013;-78
2021/05/31 09:10:37;;;;;;;4.25;1.52;;;;;;;18.05;33.92;99320.57;2179914;81;21012;-78
2021/05/31 09:13:40;;;;;;;11.57;2.00;;;;;;;17.82;33.39;99322.13;2163180;81;21387;-78
2021/05/31 09:16:40;;;;;;;3.72;1.60;;;;;;;17.90;34.17;99322.05;2168186;81;21088;-77
2021/05/31 09:19:41;;;;;;;11.30;2.60;;;;;;;17.74;34.38;99318.69;2177627;81;21005;-79
2021/05/31 09:22:42;;;;;;;4.62;1.57;;;;;;;17.84;34.34;99326.08;2193249;81;21047;-80
2021/05/31 09:25:43;;;;;;;4.83;1.52;;;;;;;18.34;33.22;99332.17;2190017;81;21061;-79
2021/05/31 09:28:44;;;;;;;3.27;1.77;;;;;;;18.30;32.90;99318.56;2180655;81;21136;-80
2021/05/31 09:31:45;;;;;;;2.50;1.65;;;;;;;18.18;32.69;99313.39;2183530;81;21039;-79
2021/05/31 09:34:46;;;;;;;6.35;1.70;;;;;;;18.12;32.62;99312.13;2194835;81;21508;-79
2021/05/31 09:40:53;;;;;;;4.72;3.42;;;;;;;17.93;33.65;99312.78;2156551;81;21348;-79
2021/05/31 09:43:54;;;;;;;3.45;1.90;;;;;;;17.81;33.43;99305.86;2175268;81;21091;-79
2021/05/31 09:46:55;;;;;;;2.40;1.60;;;;;;;18.23;33.43;99303.67;2172935;81;21001;-82
2021/05/31 09:49:56;;;;;;;3.12;1.70;;;;;;;19.11;31.87;99284.91;2170012;81;21115;-78
2021/05/31 09:52:57;;;;;;;6.70;1.85;;;;;;;19.70;31.74;99290.11;2180936;81;21425;-79
2021/05/31 09:55:58;;;;;;;2.10;1.90;;;;;;;19.51;31.02;99293.08;2178122;81;21115;-78
2021/05/31 09:59:04;;;;;;;14.40;2.37;;;;;;;19.08;31.18;99292.00;2187529;81;21097;-79
2021/05/31 10:02:04;;;;;;;11.10;2.00;;;;;;;18.95;31.32;99302.75;2172244;81;21077;-79
2021/05/31 10:05:25;;;;;;;26.77;2.92;;;;;;;18.67;31.76;99296.98;2182813;81;21120;-79
2021/05/31 10:11:31;;;;;;;1.82;1.70;;;;;;;18.53;31.88;99301.09;2138070;81;21020;-79
2021/05/31 10:14:32;;;;;;;2.75;2.00;;;;;;;18.50;32.05;99297.63;2188347;80;20993;-79
2021/05/31 10:17:33;;;;;;;4.55;1.82;;;;;;;18.62;32.42;99288.23;2180776;82;20998;-79
2021/05/31 10:20:36;;;;;;;4.95;1.98;;;;;;;19.19;31.68;99286.54;2159073;81;21140;-78
2021/05/31 10:23:37;;;;;;;3.67;2.02;;;;;;;19.35;31.37;99285.84;2160541;81;21107;-79
2021/05/31 10:26:38;;;;;;;7.37;2.67;;;;;;;19.04;32.33;99282.33;2162997;81;21390;-78
2021/05/31 10:29:39;;;;;;;7.87;3.10;;;;;;;19.03;32.25;99291.61;2170382;81;21151;-79
2021/05/31 10:32:40;;;;;;;8.50;2.20;;;;;;;19.46;33.53;99281.69;2152441;81;21452;-76
2021/05/31 10:35:41;;;;;;;4.58;2.70;;;;;;;19.48;32.28;99286.50;2173760;82;21092;-78
2021/05/31 10:38:44;;;;;;;36.28;4.67;;;;;;;18.95;34.05;99284.23;2182189;81;21493;-77
2021/05/31 10:41:45;;;;;;;5.08;2.35;;;;;;;18.72;34.41;99289.86;2181209;81;21104;-78
2021/05/31 10:44:46;;;;;;;19.60;3.58;;;;;;;18.63;35.06;99288.22;2175996;81;21076;-77
2021/05/31 10:47:47;;;;;;;3.72;2.52;;;;;;;18.63;35.12;99289.53;2187339;81;21640;-78
2021/05/31 10:50:48;;;;;;;11.25;3.42;;;;;;;18.62;35.36;99290.88;2190332;81;21152;-79
2021/05/31 10:53:49;;;;;;;8.20;2.40;;;;;;;18.73;35.21;99289.84;2178514;81;21479;-78
2021/05/31 10:56:53;;;;;;;10.95;2.50;;;;;;;18.81;34.32;99284.44;2182326;81;21083;-77
2021/05/31 10:59:53;;;;;;;6.87;2.92;;;;;;;18.59;34.55;99293.53;2183702;81;21148;-79
2021/05/31 11:02:54;;;;;;;6.67;2.67;;;;;;;18.51;34.79;99282.19;2181590;81;21448;-78
2021/05/31 11:05:55;;;;;;;3.90;2.20;;;;;;;18.66;34.89;99276.28;2191098;81;21424;-78
2021/05/31 11:08:56;;;;;;;34.65;4.20;;;;;;;18.75;34.54;99276.14;2174769;81;21128;-79
2021/05/31 11:11:57;;;;;;;20.10;2.87;;;;;;;18.89;35.09;99273.30;2190986;81;20977;-78
2021/05/31 11:14:58;;;;;;;4.35;2.70;;;;;;;19.19;35.40;99277.28;2189229;81;21081;-80
2021/05/31 11:17:59;;;;;;;7.15;2.45;;;;;;;19.29;33.59;99277.55;2186713;81;20996;-79
2021/05/31 11:21:01;;;;;;;7.08;2.77;;;;;;;19.68;31.94;99266.75;2173735;81;21400;-78
2021/05/31 11:24:02;;;;;;;5.35;2.37;;;;;;;19.78;33.03;99267.45;2171772;81;21009;-79
2021/05/31 11:27:03;;;;;;;6.03;2.20;;;;;;;19.69;32.83;99265.85;2192312;81;21369;-78
2021/05/31 11:30:04;;;;;;;5.87;2.22;;;;;;;19.41;33.18;99260.59;2191538;81;21492;-78
2021/05/31 11:33:05;;;;;;;27.58;4.03;;;;;;;19.31;33.48;99260.32;2182768;81;21416;-79
2021/05/31 11:36:06;;;;;;;4.15;3.05;;;;;;;19.27;33.87;99262.59;2168675;81;21009;-79
2021/05/31 11:39:07;;;;;;;3.47;2.35;;;;;;;19.44;33.53;99263.63;2183686;81;21128;-78
2021/05/31 11:42:08;;;;;;;4.95;3.20;;;;;;;19.28;33.27;99271.83;2173848;81;21079;-78
2021/05/31 11:45:09;;;;;;;5.28;2.00;;;;;;;19.04;33.11;99271.74;2169770;81;21372;-78
2021/05/31 11:48:12;;;;;;;6.78;2.55;;;;;;;18.86;33.50;99262.77;2191060;81;21005;-79
2021/05/31 11:51:13;;;;;;;12.13;2.37;;;;;;;18.61;33.73;99263.98;2190890;81;21041;-78
2021/05/31 11:54:14;;;;;;;3.95;1.80;;;;;;;18.33;33.08;99264.35;2190884;81;21388;-78
2021/05/31 11:57:20;;;;;;;7.50;2.60;;;;;;;18.21;32.82;99256.58;2188543;81;21103;-78
2021/05/31 12:00:18;;;;;;;9.85;2.20;;;;;;;18.12;33.50;99259.30;2180051;81;21469;-79
2021/05/31 12:03:19;;;;;;;5.20;2.02;;;;;;;18.16;34.57;99259.69;2190626;81;20973;-80
2021/05/31 12:06:20;;;;;;;2.33;1.67;;;;;;;18.61;33.82;99258.70;2169838;81;21096;-78
2021/05/31 12:09:21;;;;;;;4.92;2.00;;;;;;;18.91;33.04;99240.21;2174342;81;21111;-77
2021/05/31 12:12:22;;;;;;;2.52;2.02;;;;;;;19.03;30.99;99240.89;2168854;81;21051;-78
2021/05/31 12:15:23;;;;;;;6.47;2.05;;;;;;;18.85;30.39;99261.02;2178783;81;21016;-78
2021/05/31 12:18:26;;;;;;;13.78;2.60;;;;;;;18.59;30.07;99251.23;2186365;81;21048;-79
2021/05/31 12:21:27;;;;;;;9.43;2.22;;;;;;;18.35;31.17;99253.31;2180609;81;21127;-78
2021/05/31 12:24:27;;;;;;;6.25;2.02;;;;;;;18.50;29.72;99247.39;2185558;81;21362;-79
2021/05/31 12:27:29;;;;;;;3.20;1.98;;;;;;;18.50;30.54;99238.14;2196838;78;21369;-77
2021/05/31 12:30:30;;;;;;;7.15;2.33;;;;;;;18.74;30.53;99251.05;2190562;81;21144;-76
2021/05/31 12:33:31;;;;;;;7.92;2.70;;;;;;;18.67;31.19;99231.75;2182249;81;21083;-78
2021/05/31 12:36:32;;;;;;;5.30;2.22;;;;;;;18.79;32.03;99233.34;2174284;81;21012;-78
2021/05/31 12:39:33;;;;;;;9.10;2.30;;;;;;;19.32;31.93;99231.18;2190393;81;21128;-79
2021/05/31 12:42:34;;;;;;;2.30;1.90;;;;;;;19.86;31.39;99235.52;2184065;81;21056;-78
2021/05/31 12:45:35;;;;;;;4.53;2.25;;;;;;;20.30;30.44;99230.22;2182552;81;21501;-79
2021/05/31 12:48:36;;;;;;;3.90;2.08;;;;;;;20.16;29.59;99233.61;2191685;81;21501;-78
2021/05/31 12:51:37;;;;;;;2.42;1.77;;;;;;;19.98;29.62;99230.02;2173620;81;21380;-79
2021/05/31 12:54:38;;;;;;;123.47;10.58;;;;;;;19.72;30.62;99232.69;2180372;81;21048;-79
2021/05/31 12:57:40;;;;;;;2.05;1.67;;;;;;;19.55;30.01;99228.16;2187965;81;21362;-79
2021/05/31 13:00:40;;;;;;;12.55;2.20;;;;;;;19.48;29.00;99225.61;2176767;81;21043;-80
2021/05/31 13:03:42;;;;;;;2.87;1.87;;;;;;;19.52;29.03;99222.91;2174503;81;21447;-78
2021/05/31 13:06:44;;;;;;;6.65;1.90;;;;;;;19.79;28.52;99216.23;2169629;81;21020;-79
2021/05/31 13:09:45;;;;;;;6.72;2.22;;;;;;;19.89;28.00;99216.92;2195510;81;21128;-79
2021/05/31 13:12:46;;;;;;;4.17;2.10;;;;;;;20.12;28.16;99225.77;2176462;81;21084;-80
2021/05/31 13:15:47;;;;;;;14.63;2.47;;;;;;;20.49;28.10;99215.27;2168911;81;21012;-78
2021/05/31 13:18:49;;;;;;;7.12;1.92;;;;;;;20.70;28.46;99222.74;2175468;81;21036;-78
2021/05/31 13:21:50;;;;;;;16.77;2.55;;;;;;;20.64;28.01;99217.58;2172801;81;21083;-79
2021/05/31 13:24:51;;;;;;;2.42;1.60;;;;;;;20.27;28.23;99211.73;2178119;81;21463;-78
2021/05/31 13:27:53;;;;;;;8.73;3.42;;;;;;;20.06;28.25;99211.31;2184109;81;21080;-78
2021/05/31 13:30:54;;;;;;;4.47;2.77;;;;;;;19.87;28.77;99222.70;2193349;81;21100;-78
2021/05/31 13:33:55;;;;;;;3.65;1.80;;;;;;;19.75;29.00;99213.67;2182582;81;21028;-78
2021/05/31 13:36:56;;;;;;;8.93;1.92;;;;;;;19.55;27.79;99224.64;2179970;81;21115;-78
2021/05/31 13:39:58;;;;;;;3.85;1.65;;;;;;;19.15;27.86;99218.69;2186428;81;21082;-77
2021/05/31 13:43:04;;;;;;;3.72;1.60;;;;;;;18.95;28.47;99222.08;2182553;81;21484;-78
2021/05/31 13:46:02;;;;;;;8.13;2.75;;;;;;;18.93;29.68;99218.58;2182905;81;21025;-78
2021/05/31 13:49:03;;;;;;;16.15;3.60;;;;;;;19.26;29.92;99214.53;2184429;81;21119;-79
2021/05/31 13:52:04;;;;;;;3.55;2.35;;;;;;;19.92;27.22;99226.13;2176729;81;21114;-79
2021/05/31 13:55:05;;;;;;;6.72;2.10;;;;;;;20.08;27.66;99211.70;2170892;81;21040;-79
2021/05/31 13:58:07;;;;;;;11.38;2.05;;;;;;;20.00;27.95;99215.83;2173294;81;21032;-80
2021/05/31 14:01:08;;;;;;;5.70;2.00;;;;;;;19.97;27.97;99213.24;2191789;81;21040;-78
2021/05/31 14:04:10;;;;;;;6.53;2.62;;;;;;;19.59;27.67;99215.28;2191053;81;21456;-79
2021/05/31 14:07:11;;;;;;;6.95;2.20;;;;;;;19.40;28.54;99213.84;2193333;81;21101;-78
2021/05/31 14:10:14;;;;;;;5.45;1.90;;;;;;;19.31;28.83;99217.97;2169878;81;21017;-80
2021/05/31 14:13:15;;;;;;;6.65;2.52;;;;;;;19.33;29.29;99224.11;2179578;81;21069;-78
2021/05/31 14:16:16;;;;;;;7.90;2.08;;;;;;;19.26;29.05;99210.56;2172236;81;21578;-78
2021/05/31 14:19:17;;;;;;;2.77;1.60;;;;;;;19.42;28.16;99216.01;2164066;81;21075;-78
2021/05/31 14:22:18;;;;;;;5.67;2.10;;;;;;;19.41;28.51;99214.27;2176450;81;21488;-79
2021/05/31 14:25:20;;;;;;;16.02;2.25;;;;;;;19.32;28.71;99207.81;2173079;81;21027;-78
2021/05/31 14:28:21;;;;;;;8.23;2.08;;;;;;;19.33;29.09;99206.91;2184844;81;21013;-79
2021/05/31 14:31:22;;;;;;;2.70;1.45;;;;;;;19.47;28.67;99200.91;2193427;81;21080;-79
2021/05/31 14:34:23;;;;;;;7.08;1.98;;;;;;;19.43;28.41;99208.48;2180448;81;21096;-79